createdAt,value
2022-12-31T00:03:24.220Z,10.40
2022-12-31T00:11:57.413Z,10.40
2022-12-31T00:16:36.752Z,10.50
2022-12-31T00:20:53.932Z,10.50
2022-12-31T00:25:10.920Z,10.60
2022-12-31T00:29:28.008Z,10.60
2022-12-31T00:33:45.888Z,10.60
2022-12-31T00:38:03.002Z,10.60
2022-12-31T00:42:20.074Z,10.80
2022-12-31T00:50:54.653Z,11.00
2022-12-31T00:55:11.761Z,11.00
2022-12-31T00:59:28.854Z,11.00
2022-12-31T01:03:47.503Z,11.10
2022-12-31T01:08:05.516Z,11.10
2022-12-31T01:12:24.669Z,11.20
2022-12-31T01:16:44.964Z,11.30
2022-12-31T01:21:04.680Z,11.30
2022-12-31T01:25:21.891Z,11.30
2022-12-31T01:29:38.960Z,11.50
2022-12-31T01:33:56.093Z,11.50
2022-12-31T01:38:13.183Z,11.50
2022-12-31T01:42:30.250Z,11.60
2022-12-31T01:46:53.832Z,11.70
2022-12-31T01:51:10.959Z,11.60
2022-12-31T01:55:33.261Z,11.60
2022-12-31T01:59:50.825Z,11.70
2022-12-31T02:04:13.375Z,11.90
2022-12-31T02:08:30.860Z,11.80
2022-12-31T02:12:48.645Z,11.90
2022-12-31T02:17:17.037Z,12.00
2022-12-31T02:21:53.933Z,12.00
2022-12-31T02:26:39.716Z,12.10
2022-12-31T02:31:21.913Z,12.20
2022-12-31T02:35:59.340Z,12.20
2022-12-31T02:40:19.804Z,12.10
2022-12-31T02:44:38.693Z,12.20
2022-12-31T02:49:01.614Z,12.20
2022-12-31T02:53:51.753Z,12.20
2022-12-31T02:58:16.557Z,12.20
2022-12-31T03:02:35.311Z,12.30
2022-12-31T03:06:52.948Z,12.40
2022-12-31T03:11:29.936Z,12.50
2022-12-31T03:15:46.972Z,12.60
2022-12-31T03:20:22.835Z,12.60
2022-12-31T03:24:58.859Z,12.70
2022-12-31T03:29:15.935Z,12.60
2022-12-31T03:33:35.901Z,12.70
2022-12-31T03:37:53.619Z,12.70
2022-12-31T03:42:10.854Z,12.80
2022-12-31T03:46:27.915Z,12.80
2022-12-31T03:50:45.415Z,12.80
2022-12-31T03:55:02.737Z,12.80
2022-12-31T03:59:19.934Z,12.90
2022-12-31T04:03:37.004Z,12.90
2022-12-31T04:07:55.623Z,12.90
2022-12-31T04:12:12.685Z,12.90
2022-12-31T04:16:29.845Z,12.80
2022-12-31T04:20:47.020Z,12.80
2022-12-31T04:25:06.133Z,12.80
2022-12-31T04:29:23.275Z,12.80
2022-12-31T04:33:40.349Z,12.70
2022-12-31T04:37:57.401Z,12.90
2022-12-31T04:42:14.447Z,12.80
2022-12-31T04:46:33.558Z,12.70
2022-12-31T04:50:51.249Z,12.80
2022-12-31T04:55:08.515Z,12.70
2022-12-31T04:59:25.647Z,12.60
2022-12-31T05:03:42.953Z,12.70
2022-12-31T05:08:00.018Z,13.00
2022-12-31T05:12:17.101Z,13.00
2022-12-31T05:16:34.185Z,13.00
2022-12-31T05:20:51.295Z,13.00
2022-12-31T05:25:08.984Z,13.00
2022-12-31T05:29:26.100Z,12.90
2022-12-31T05:33:43.216Z,12.90
2022-12-31T05:38:01.149Z,12.80
2022-12-31T05:42:18.360Z,12.90
2022-12-31T05:46:35.411Z,13.00
2022-12-31T05:50:52.543Z,12.80
2022-12-31T05:55:09.944Z,13.00
2022-12-31T05:59:27.038Z,13.00
2022-12-31T06:03:44.368Z,12.90
2022-12-31T06:08:01.492Z,12.90
2022-12-31T06:12:18.594Z,13.00
2022-12-31T06:16:35.816Z,13.10
2022-12-31T06:20:52.890Z,13.20
2022-12-31T06:25:10.165Z,13.40
2022-12-31T06:29:27.229Z,13.50
2022-12-31T06:33:44.347Z,13.60
2022-12-31T06:38:01.564Z,13.70
2022-12-31T06:42:18.864Z,13.70
2022-12-31T06:46:35.956Z,13.70
2022-12-31T06:50:53.139Z,13.60
2022-12-31T06:55:10.946Z,13.50
2022-12-31T06:59:29.651Z,13.50
2022-12-31T07:04:12.041Z,13.50
2022-12-31T07:08:49.411Z,13.40
2022-12-31T07:13:27.410Z,13.50
2022-12-31T07:18:07.175Z,13.70
2022-12-31T07:22:24.522Z,13.80
2022-12-31T07:27:00.160Z,13.80
2022-12-31T07:31:26.524Z,13.80
2022-12-31T07:36:19.401Z,13.80
2022-12-31T07:41:10.279Z,13.80
2022-12-31T07:45:34.530Z,13.80
2022-12-31T07:49:52.760Z,13.90
2022-12-31T07:54:13.846Z,14.00
2022-12-31T07:58:40.578Z,14.20
2022-12-31T08:03:21.127Z,14.10
2022-12-31T08:08:00.360Z,14.20
2022-12-31T08:12:19.417Z,14.30
2022-12-31T08:16:36.839Z,14.40
2022-12-31T08:21:19.073Z,14.30
2022-12-31T08:26:11.111Z,14.30
2022-12-31T08:31:00.825Z,14.40
2022-12-31T08:35:24.027Z,14.40
2022-12-31T08:39:58.868Z,14.40
2022-12-31T08:44:48.334Z,14.40
2022-12-31T08:49:05.680Z,14.40
2022-12-31T08:53:23.179Z,14.50
2022-12-31T08:58:07.154Z,14.60
2022-12-31T09:02:59.566Z,14.60
2022-12-31T09:07:23.446Z,14.70
2022-12-31T09:11:49.137Z,14.70
2022-12-31T09:16:23.292Z,14.80
2022-12-31T09:20:43.852Z,14.90
2022-12-31T09:25:01.884Z,15.00
2022-12-31T09:29:43.303Z,15.00
2022-12-31T09:34:15.195Z,15.00
2022-12-31T09:38:42.993Z,15.00
2022-12-31T09:43:45.802Z,15.00
2022-12-31T09:48:30.948Z,15.00
2022-12-31T09:53:26.548Z,15.20
2022-12-31T09:58:17.688Z,15.20
2022-12-31T10:03:24.764Z,15.20
2022-12-31T10:08:13.137Z,15.40
2022-12-31T10:12:33.280Z,15.50
2022-12-31T10:16:59.578Z,15.50
2022-12-31T10:21:34.953Z,15.50
2022-12-31T10:26:05.829Z,15.70
2022-12-31T10:30:24.493Z,15.60
2022-12-31T10:34:55.413Z,15.70
2022-12-31T10:39:29.606Z,15.70
2022-12-31T10:44:08.235Z,15.80
2022-12-31T10:49:10.254Z,15.80
2022-12-31T10:54:04.865Z,15.80
2022-12-31T10:58:59.367Z,15.90
2022-12-31T11:03:38.433Z,15.80
2022-12-31T11:08:27.673Z,16.00
2022-12-31T11:13:25.007Z,16.00
2022-12-31T11:18:06.195Z,16.00
2022-12-31T11:22:53.984Z,16.00
2022-12-31T11:27:50.893Z,16.10
2022-12-31T11:32:34.957Z,16.10
2022-12-31T11:37:06.789Z,16.10
2022-12-31T11:42:01.957Z,16.20
2022-12-31T11:46:31.231Z,16.20
2022-12-31T11:51:10.107Z,16.10
2022-12-31T11:55:52.134Z,16.30
2022-12-31T12:00:09.548Z,16.40
2022-12-31T12:04:27.358Z,16.30
2022-12-31T12:08:45.075Z,16.30
2022-12-31T12:13:21.778Z,16.20
2022-12-31T12:17:40.019Z,16.30
2022-12-31T12:21:57.723Z,16.50
2022-12-31T12:26:36.072Z,16.60
2022-12-31T12:30:57.365Z,17.00
2022-12-31T12:35:16.904Z,17.00
2022-12-31T12:39:34.921Z,16.90
2022-12-31T12:44:14.281Z,16.90
2022-12-31T12:48:39.913Z,17.10
2022-12-31T12:53:30.962Z,16.80
2022-12-31T12:57:56.367Z,16.60
2022-12-31T13:02:34.534Z,16.50
2022-12-31T13:07:05.496Z,16.40
2022-12-31T13:11:53.166Z,16.40
2022-12-31T13:16:34.652Z,16.50
2022-12-31T13:21:18.565Z,16.50
2022-12-31T13:25:35.565Z,16.40
2022-12-31T13:29:56.230Z,16.30
2022-12-31T13:34:28.995Z,16.20
2022-12-31T13:38:52.969Z,16.10
2022-12-31T13:43:23.812Z,16.10
2022-12-31T13:47:55.634Z,16.00
2022-12-31T13:52:34.439Z,16.00
2022-12-31T13:56:52.725Z,15.90
2022-12-31T14:01:13.827Z,15.80
2022-12-31T14:05:37.451Z,15.90
2022-12-31T14:09:54.799Z,15.90
2022-12-31T14:14:17.380Z,15.90
2022-12-31T14:19:07.454Z,15.80
2022-12-31T14:23:43.130Z,15.80
2022-12-31T14:28:04.253Z,15.80
2022-12-31T14:32:30.565Z,15.70
2022-12-31T14:37:18.389Z,15.70
2022-12-31T14:41:55.273Z,15.70
2022-12-31T14:46:18.599Z,15.70
2022-12-31T14:50:36.203Z,15.60
2022-12-31T14:55:20.743Z,15.50
2022-12-31T14:59:40.609Z,15.30
2022-12-31T15:03:58.649Z,15.50
2022-12-31T15:08:24.706Z,15.40
2022-12-31T15:12:46.445Z,15.30
2022-12-31T15:17:27.855Z,15.20
2022-12-31T15:22:19.566Z,15.30
2022-12-31T15:26:37.053Z,15.10
2022-12-31T15:30:58.901Z,15.20
2022-12-31T15:35:22.107Z,15.30
2022-12-31T15:39:42.172Z,15.20
2022-12-31T15:44:19.240Z,15.30
2022-12-31T15:48:51.673Z,15.30
2022-12-31T15:53:36.245Z,15.20
2022-12-31T15:57:57.051Z,15.20
2022-12-31T16:02:21.751Z,15.10
2022-12-31T16:06:39.210Z,15.00
2022-12-31T16:10:57.227Z,15.00
2022-12-31T16:15:24.711Z,15.10
2022-12-31T16:19:44.616Z,14.90
2022-12-31T16:24:27.405Z,15.00
2022-12-31T16:28:48.730Z,14.90
2022-12-31T16:33:12.897Z,15.00
2022-12-31T16:37:30.480Z,14.90
2022-12-31T16:41:47.863Z,14.80
2022-12-31T16:46:27.999Z,15.20
2022-12-31T16:50:48.751Z,15.20
2022-12-31T16:55:23.404Z,15.20
2022-12-31T16:59:44.452Z,15.30
2022-12-31T17:04:06.454Z,15.30
2022-12-31T17:08:38.203Z,15.10
2022-12-31T17:13:28.167Z,15.20
2022-12-31T17:17:37.937Z,15.30
2022-12-31T17:21:55.092Z,15.20
2022-12-31T17:26:14.930Z,15.10
2022-12-31T17:30:40.177Z,15.10
2022-12-31T17:34:57.319Z,15.10
2022-12-31T17:39:19.253Z,15.10
2022-12-31T17:43:37.818Z,15.10
2022-12-31T17:47:59.707Z,15.30
2022-12-31T17:52:16.935Z,15.30
2022-12-31T17:56:33.994Z,15.30
2022-12-31T18:00:52.600Z,15.40
2022-12-31T18:05:18.549Z,15.30
2022-12-31T18:09:35.631Z,15.30
2022-12-31T18:13:54.405Z,15.20
2022-12-31T18:18:24.543Z,15.10
2022-12-31T18:22:43.681Z,14.90
2022-12-31T18:27:00.761Z,14.80
2022-12-31T18:31:30.883Z,14.70
2022-12-31T18:36:08.640Z,14.90
2022-12-31T18:40:27.011Z,14.90
2022-12-31T18:44:45.287Z,15.10
2022-12-31T18:49:02.352Z,15.00
2022-12-31T18:53:22.685Z,15.10
2022-12-31T18:57:39.823Z,14.80
2022-12-31T19:01:57.015Z,14.80
2022-12-31T19:06:14.165Z,14.90
2022-12-31T19:10:31.424Z,14.70
2022-12-31T19:14:48.504Z,14.50
2022-12-31T19:19:08.721Z,14.30
2022-12-31T19:23:26.003Z,14.30
2022-12-31T19:27:43.086Z,14.10
2022-12-31T19:32:02.112Z,13.90
2022-12-31T19:36:20.632Z,13.80
2022-12-31T19:40:39.983Z,13.90
2022-12-31T19:44:57.064Z,13.80
2022-12-31T19:49:18.282Z,14.00
2022-12-31T19:53:35.938Z,14.20
2022-12-31T19:57:53.404Z,14.40
2022-12-31T20:02:10.738Z,14.50
2022-12-31T20:06:27.939Z,14.50
2022-12-31T20:10:45.967Z,14.80
2022-12-31T20:15:03.273Z,14.80
2022-12-31T20:19:20.364Z,15.00
2022-12-31T20:23:37.738Z,15.00
2022-12-31T20:27:55.530Z,15.00
2022-12-31T20:32:12.606Z,15.10
2022-12-31T20:36:29.820Z,15.10
2022-12-31T20:40:47.361Z,15.10
2022-12-31T20:45:05.062Z,15.00
2022-12-31T20:49:44.422Z,15.00
2022-12-31T20:54:05.476Z,15.30
2022-12-31T20:58:22.934Z,15.20
2022-12-31T21:02:42.481Z,15.40
2022-12-31T21:07:00.207Z,15.30
2022-12-31T21:11:36.205Z,15.20
2022-12-31T21:15:54.982Z,15.40
2022-12-31T21:20:12.333Z,15.40
2022-12-31T21:24:29.771Z,15.80
2022-12-31T21:28:46.881Z,15.60
2022-12-31T21:33:04.073Z,15.60
2022-12-31T21:37:21.150Z,15.70
2022-12-31T21:41:53.727Z,15.50
2022-12-31T21:46:10.884Z,15.60
2022-12-31T21:50:28.095Z,15.80
2022-12-31T21:55:03.821Z,15.60
2022-12-31T22:00:31.913Z,15.70
2022-12-31T22:05:01.567Z,15.80
2022-12-31T22:09:13.992Z,15.90
2022-12-31T22:13:31.904Z,16.00
2022-12-31T22:17:49.129Z,16.10
2022-12-31T22:22:06.291Z,16.10
2022-12-31T22:26:26.298Z,16.20
2022-12-31T22:30:47.758Z,16.10
2022-12-31T22:35:05.880Z,16.00
2022-12-31T22:39:43.987Z,15.90
2022-12-31T22:44:03.613Z,15.80
2022-12-31T22:48:21.469Z,15.60
2022-12-31T22:52:38.751Z,15.80
2022-12-31T22:56:55.885Z,15.60
2022-12-31T23:01:21.872Z,15.40
2022-12-31T23:05:38.999Z,15.50
2022-12-31T23:10:14.910Z,15.40
2022-12-31T23:14:52.259Z,15.40
2022-12-31T23:19:28.280Z,15.40
2022-12-31T23:23:45.341Z,15.40
2022-12-31T23:28:02.495Z,15.30
2022-12-31T23:32:19.897Z,15.30
2022-12-31T23:36:37.107Z,15.20
2022-12-31T23:40:54.146Z,15.10
2022-12-31T23:45:11.407Z,15.20
2022-12-31T23:49:28.465Z,15.20
2022-12-31T23:53:45.576Z,15.20
2022-12-31T23:58:02.642Z,15.20
